Time;durP1;ratioP1;P1;durP2;ratioP2;P2;SDS_P1;SDS_P2;PMS_P1;PMS_P2;Temp;Humidity;BMP_temperature;BMP_pressure;BME280_temperature;BME280_humidity;BME280_pressure;Samples;Min_cycle;Max_cycle;Signal;HPM_P1;HPM_P2
2023/07/17 00:01:46;;;;;;;;;;;;;;;23.34;47.95;101427.81;5054634;28;20283;-73
2023/07/17 00:04:11;;;;;;;;;;;;;;;23.34;47.84;101424.25;5049597;28;20301;-73
2023/07/17 00:06:37;;;;;;;;;;;;;;;23.34;48.06;101416.97;5051411;28;19921;-73
2023/07/17 00:09:02;;;;;;;;;;;;;;;23.33;47.94;101419.88;5081541;28;19928;-73
2023/07/17 00:11:28;;;;;;;;;;;;;;;23.34;47.75;101426.97;5084926;28;19916;-70
2023/07/17 00:13:54;;;;;;;;;;;;;;;23.32;48.05;101419.03;5047735;28;19917;-70
2023/07/17 00:16:20;;;;;;;;;;;;;;;23.33;47.89;101422.59;5085490;28;19988;-70
2023/07/17 00:18:45;;;;;;;;;;;;;;;23.33;47.72;101419.88;5050331;28;19987;-70
2023/07/17 00:21:10;;;;;;;;;;;;;;;23.31;47.79;101411.91;5061983;28;20379;-70
2023/07/17 00:23:36;;;;;;;;;;;;;;;23.32;47.95;101418.16;5053007;28;20982;-70
2023/07/17 00:26:01;;;;;;;;;;;;;;;23.32;47.90;101415.44;5081621;28;19932;-71
2023/07/17 00:28:26;;;;;;;;;;;;;;;23.31;47.81;101421.91;5049779;28;19925;-71
2023/07/17 00:30:51;;;;;;;;;;;;;;;23.31;47.79;101424.63;5051821;28;19925;-71
2023/07/17 00:33:16;;;;;;;;;;;;;;;23.30;48.03;101433.81;5050678;28;19924;-72
2023/07/17 00:35:42;;;;;;;;;;;;;;;23.30;47.97;101437.34;5051270;28;19921;-71
2023/07/17 00:38:07;;;;;;;;;;;;;;;23.29;47.80;101435.69;5054556;28;20064;-71
2023/07/17 00:40:32;;;;;;;;;;;;;;;23.30;48.06;101440.06;5081971;28;20320;-71
2023/07/17 00:42:58;;;;;;;;;;;;;;;23.30;47.87;101433.81;5051947;28;19917;-71
2023/07/17 00:45:24;;;;;;;;;;;;;;;23.30;48.19;101441.94;5052529;28;19952;-71
2023/07/17 00:47:49;;;;;;;;;;;;;;;23.27;48.10;101440.44;5047586;28;19921;-71
2023/07/17 00:50:14;;;;;;;;;;;;;;;23.28;47.76;101442.13;5049083;28;20452;-71
2023/07/17 00:52:40;;;;;;;;;;;;;;;23.28;47.82;101441.25;5049593;28;20294;-71
2023/07/17 00:55:05;;;;;;;;;;;;;;;23.27;48.18;101443.13;5050857;28;19917;-71
2023/07/17 00:57:31;;;;;;;;;;;;;;;23.27;47.89;101445.00;5051255;28;19921;-71
2023/07/17 00:59:56;;;;;;;;;;;;;;;23.26;48.02;101452.31;5082418;28;20027;-71
2023/07/17 01:02:21;;;;;;;;;;;;;;;23.26;47.82;101451.47;5049400;28;19917;-71
2023/07/17 01:04:47;;;;;;;;;;;;;;;23.25;48.09;101450.63;5051583;28;19916;-71
2023/07/17 01:07:13;;;;;;;;;;;;;;;23.26;47.75;101451.47;5049280;28;19925;-71
2023/07/17 01:09:38;;;;;;;;;;;;;;;23.24;48.17;101457.09;5070248;28;20007;-71
2023/07/17 01:12:03;;;;;;;;;;;;;;;23.26;47.90;101448.75;5049397;28;19924;-71
2023/07/17 01:14:28;;;;;;;;;;;;;;;23.24;47.97;101457.09;5047668;28;19924;-71
2023/07/17 01:16:54;;;;;;;;;;;;;;;23.25;47.89;101455.22;5051094;28;19924;-70
2023/07/17 01:19:19;;;;;;;;;;;;;;;23.24;47.97;101461.69;5078224;28;19921;-71
2023/07/17 01:21:56;;;;;;;;;;;;;;;23.25;47.79;101457.94;5046534;28;19960;-71
2023/07/17 01:24:22;;;;;;;;;;;;;;;23.24;47.91;101450.84;5050552;28;20011;-71
2023/07/17 01:26:47;;;;;;;;;;;;;;;23.24;48.14;101439.97;5079715;28;19956;-71
2023/07/17 01:29:12;;;;;;;;;;;;;;;23.23;48.06;101438.28;5051924;28;20017;-71
2023/07/17 01:31:37;;;;;;;;;;;;;;;23.23;48.15;101439.09;5052786;28;19916;-71
2023/07/17 01:34:04;;;;;;;;;;;;;;;23.22;47.88;101442.84;5050624;28;19917;-71
2023/07/17 01:36:29;;;;;;;;;;;;;;;23.23;47.89;101441.81;5033073;28;19996;-71
2023/07/17 01:38:54;;;;;;;;;;;;;;;23.22;47.92;101448.28;5049504;28;19921;-71
2023/07/17 01:41:20;;;;;;;;;;;;;;;23.22;48.31;101448.28;5047217;28;19917;-71
2023/07/17 01:43:45;;;;;;;;;;;;;;;23.22;47.84;101453.72;5049558;28;19939;-71
2023/07/17 01:46:10;;;;;;;;;;;;;;;23.22;48.01;101448.28;5053385;28;19967;-71
2023/07/17 01:48:35;;;;;;;;;;;;;;;23.22;47.91;101451.00;5048251;28;19923;-71
2023/07/17 01:51:01;;;;;;;;;;;;;;;23.22;47.68;101458.28;5053563;28;19921;-71
2023/07/17 01:53:26;;;;;;;;;;;;;;;23.20;47.92;101456.63;5048415;28;19924;-71
2023/07/17 01:55:51;;;;;;;;;;;;;;;23.21;47.98;101457.47;5034960;28;20016;-71
2023/07/17 01:58:16;;;;;;;;;;;;;;;23.21;48.08;101457.47;5082215;28;19917;-71
2023/07/17 02:00:42;;;;;;;;;;;;;;;23.20;48.06;101450.34;5052892;28;19947;-71
2023/07/17 02:03:07;;;;;;;;;;;;;;;23.20;48.01;101459.31;5047789;28;19917;-71
2023/07/17 02:05:32;;;;;;;;;;;;;;;23.20;47.90;101456.63;5050660;28;19928;-71
2023/07/17 02:07:57;;;;;;;;;;;;;;;23.19;47.87;101463.06;5046794;28;19925;-71
2023/07/17 02:10:22;;;;;;;;;;;;;;;23.19;47.91;101456.78;5047245;28;19988;-71
2023/07/17 02:12:48;;;;;;;;;;;;;;;23.19;47.97;101463.06;5049539;28;19917;-71
2023/07/17 02:15:13;;;;;;;;;;;;;;;23.19;47.88;101462.22;5029576;28;19917;-71
2023/07/17 02:17:38;;;;;;;;;;;;;;;23.19;47.67;101462.22;5050722;28;20463;-71
2023/07/17 02:20:08;;;;;;;;;;;;;;;23.18;47.85;101469.50;5049293;28;19920;-71
2023/07/17 02:22:34;;;;;;;;;;;;;;;23.18;48.06;101472.22;5050411;28;20017;-71
2023/07/17 02:24:59;;;;;;;;;;;;;;;23.17;47.91;101470.53;5083986;28;19917;-71
2023/07/17 02:27:24;;;;;;;;;;;;;;;23.17;47.69;101467.81;5048136;28;19925;-72
2023/07/17 02:29:50;;;;;;;;;;;;;;;23.17;47.75;101467.00;5049515;28;19939;-72
2023/07/17 02:32:15;;;;;;;;;;;;;;;23.16;47.86;101474.28;5051181;28;19968;-72
2023/07/17 02:34:40;;;;;;;;;;;;;;;23.16;48.04;101477.00;5049277;28;19917;-72
2023/07/17 02:37:10;;;;;;;;;;;;;;;23.16;47.85;101477.00;5046206;28;20309;-71
2023/07/17 02:39:35;;;;;;;;;;;;;;;23.16;47.87;101484.28;5049623;28;19921;-72
2023/07/17 02:42:00;;;;;;;;;;;;;;;23.15;47.68;101483.47;5045011;28;20018;-71
2023/07/17 02:44:25;;;;;;;;;;;;;;;23.13;47.88;101471.94;5049264;28;19983;-71
2023/07/17 02:46:50;;;;;;;;;;;;;;;23.13;47.93;101477.34;5053087;28;19991;-71
2023/07/17 02:49:16;;;;;;;;;;;;;;;23.13;47.83;101484.66;5081253;28;20405;-71
2023/07/17 02:51:41;;;;;;;;;;;;;;;23.13;47.75;101487.38;5051606;28;20496;-71
2023/07/17 02:54:07;;;;;;;;;;;;;;;23.11;47.57;101490.28;5077532;28;20298;-71
2023/07/17 02:56:32;;;;;;;;;;;;;;;23.12;47.84;101501.97;5049149;28;20397;-71
2023/07/17 02:58:57;;;;;;;;;;;;;;;23.12;47.72;101500.09;5048332;28;19917;-71
2023/07/17 03:01:22;;;;;;;;;;;;;;;23.11;47.97;101492.16;5048885;28;19984;-71
2023/07/17 03:03:47;;;;;;;;;;;;;;;23.11;47.84;101487.56;5047359;28;19946;-71
2023/07/17 03:06:13;;;;;;;;;;;;;;;23.11;47.86;101503.00;5049618;28;19992;-71
2023/07/17 03:08:38;;;;;;;;;;;;;;;23.09;47.62;101505.03;5078665;28;19924;-71
2023/07/17 03:11:03;;;;;;;;;;;;;;;23.07;47.97;101504.38;5061794;28;20008;-71
2023/07/17 03:13:29;;;;;;;;;;;;;;;23.05;48.00;101496.41;5049583;28;20370;-71
2023/07/17 03:15:55;;;;;;;;;;;;;;;23.05;48.01;101498.28;5079202;28;19939;-71
2023/07/17 03:18:20;;;;;;;;;;;;;;;23.04;47.87;101499.31;5032298;28;20303;-71
2023/07/17 03:20:45;;;;;;;;;;;;;;;23.04;47.80;101499.31;5060992;28;20004;-71
2023/07/17 03:23:10;;;;;;;;;;;;;;;23.03;47.69;101500.34;5051776;28;20238;-71
2023/07/17 03:25:36;;;;;;;;;;;;;;;23.02;48.07;101501.34;5049621;28;19924;-72
2023/07/17 03:28:02;;;;;;;;;;;;;;;23.01;47.77;101502.38;5049352;28;19921;-71
2023/07/17 03:30:27;;;;;;;;;;;;;;;23.00;48.04;101498.81;5052032;28;19920;-72
2023/07/17 03:32:52;;;;;;;;;;;;;;;23.01;47.88;101502.38;5054596;28;19921;-72
2023/07/17 03:35:17;;;;;;;;;;;;;;;23.00;47.96;101506.13;5052297;28;19998;-71
2023/07/17 03:37:42;;;;;;;;;;;;;;;22.99;48.11;101505.28;5050473;28;19936;-72
2023/07/17 03:40:10;;;;;;;;;;;;;;;22.99;47.93;101501.72;5054402;28;19924;-71
2023/07/17 03:42:35;;;;;;;;;;;;;;;22.99;47.65;101501.72;5051677;28;19996;-71
2023/07/17 03:45:00;;;;;;;;;;;;;;;22.98;47.95;101510.88;5051331;28;19917;-71
2023/07/17 03:47:25;;;;;;;;;;;;;;;22.98;47.71;101505.44;5056054;28;19943;-71
2023/07/17 03:49:50;;;;;;;;;;;;;;;22.98;47.84;101509.03;5051455;28;19952;-71
2023/07/17 03:52:16;;;;;;;;;;;;;;;22.98;48.05;101505.44;5054197;28;19964;-71
2023/07/17 03:54:41;;;;;;;;;;;;;;;22.97;47.98;101504.59;5051912;28;19983;-71
2023/07/17 03:57:06;;;;;;;;;;;;;;;22.96;48.06;101513.78;5034463;28;20003;-71
2023/07/17 03:59:45;;;;;;;;;;;;;;;22.97;47.65;101506.47;5081584;28;19913;-71
2023/07/17 04:02:10;;;;;;;;;;;;;;;22.95;47.72;101512.94;5052685;28;19917;-71
2023/07/17 04:04:35;;;;;;;;;;;;;;;22.95;47.79;101512.94;5048462;28;19913;-71
2023/07/17 04:07:00;;;;;;;;;;;;;;;22.94;47.85;101513.97;5049791;28;19947;-71
2023/07/17 04:09:26;;;;;;;;;;;;;;;22.95;47.81;101520.22;5046839;28;19917;-71
2023/07/17 04:11:51;;;;;;;;;;;;;;;22.94;47.72;101522.09;5052375;28;19913;-72
2023/07/17 04:14:16;;;;;;;;;;;;;;;22.94;47.86;101516.69;5053822;28;20556;-71
2023/07/17 04:16:41;;;;;;;;;;;;;;;22.94;47.75;101526.69;5033458;28;20405;-71
2023/07/17 04:19:07;;;;;;;;;;;;;;;22.93;47.85;101523.09;5054402;28;19921;-71
2023/07/17 04:21:34;;;;;;;;;;;;;;;22.93;47.83;101531.25;5052687;28;20342;-72
2023/07/17 04:23:59;;;;;;;;;;;;;;;22.93;47.86;101527.69;5050960;28;19921;-72
2023/07/17 04:26:24;;;;;;;;;;;;;;;22.92;47.90;101523.28;5049605;28;19920;-71
2023/07/17 04:28:49;;;;;;;;;;;;;;;22.91;48.08;101522.44;5052450;28;20003;-72
2023/07/17 04:31:14;;;;;;;;;;;;;;;22.91;47.72;101525.16;5046849;28;19978;-71
2023/07/17 04:33:40;;;;;;;;;;;;;;;22.91;47.89;101524.31;5050999;28;19917;-71
2023/07/17 04:36:06;;;;;;;;;;;;;;;22.90;47.99;101534.34;5051273;28;19917;-72
2023/07/17 04:38:31;;;;;;;;;;;;;;;22.90;47.75;101534.34;5049309;28;19924;-71
2023/07/17 04:40:56;;;;;;;;;;;;;;;22.90;47.96;101538.91;5053021;28;19916;-72
2023/07/17 04:43:22;;;;;;;;;;;;;;;22.90;47.93;101538.91;5048733;28;19921;-72
2023/07/17 04:45:47;;;;;;;;;;;;;;;22.89;47.88;101540.72;5072595;28;19917;-72
2023/07/17 04:48:12;;;;;;;;;;;;;;;22.90;47.89;101541.63;5053807;28;19925;-70
2023/07/17 04:50:37;;;;;;;;;;;;;;;22.90;48.01;101538.91;5080357;28;19939;-72
2023/07/17 04:53:03;;;;;;;;;;;;;;;22.89;48.16;101543.44;5050853;28;19917;-72
2023/07/17 04:55:28;;;;;;;;;;;;;;;22.90;48.34;101542.47;5051687;28;19916;-72
2023/07/17 04:57:53;;;;;;;;;;;;;;;22.90;48.16;101542.47;5050215;28;19917;-72
2023/07/17 05:00:19;;;;;;;;;;;;;;;22.91;48.40;101548.72;5047720;28;19921;-72
2023/07/17 05:02:44;;;;;;;;;;;;;;;22.91;48.70;101549.56;5028900;28;19986;-72
2023/07/17 05:05:09;;;;;;;;;;;;;;;22.91;48.38;101554.16;5080044;28;19990;-72
2023/07/17 05:07:35;;;;;;;;;;;;;;;22.90;48.49;101553.31;5060745;28;19924;-72
2023/07/17 05:10:00;;;;;;;;;;;;;;;22.91;48.58;101560.41;5047858;28;19921;-72
2023/07/17 05:12:25;;;;;;;;;;;;;;;22.92;48.80;101553.13;5082040;28;20328;-72
2023/07/17 05:14:50;;;;;;;;;;;;;;;22.93;48.74;101561.06;5060777;28;20340;-72
2023/07/17 05:17:16;;;;;;;;;;;;;;;22.94;48.48;101559.22;5062291;28;19918;-73
2023/07/17 05:19:41;;;;;;;;;;;;;;;22.93;48.85;101561.06;5049539;28;19977;-74
2023/07/17 05:22:06;;;;;;;;;;;;;;;22.93;48.74;101557.50;5048934;28;19916;-73
2023/07/17 05:24:32;;;;;;;;;;;;;;;22.93;48.92;101576.50;5050300;28;19924;-77
2023/07/17 05:26:57;;;;;;;;;;;;;;;22.93;48.80;101576.50;5050184;28;19925;-72
2023/07/17 05:29:22;;;;;;;;;;;;;;;22.93;48.97;101577.34;5049634;28;19948;-72
2023/07/17 05:31:48;;;;;;;;;;;;;;;22.93;48.70;101577.34;5045515;28;19955;-72
2023/07/17 05:34:13;;;;;;;;;;;;;;;22.93;49.22;101580.03;5051304;28;19968;-73
2023/07/17 05:36:38;;;;;;;;;;;;;;;22.94;48.92;101581.75;5049878;28;20036;-72
2023/07/17 05:39:04;;;;;;;;;;;;;;;22.94;49.07;101580.91;5051294;28;19924;-71
2023/07/17 05:41:29;;;;;;;;;;;;;;;22.94;49.11;101589.91;5084737;28;19923;-72
2023/07/17 05:43:54;;;;;;;;;;;;;;;22.95;49.05;101588.03;5047299;28;19924;-73
2023/07/17 05:46:20;;;;;;;;;;;;;;;22.95;49.38;101588.03;5048907;28;19917;-72
2023/07/17 05:48:45;;;;;;;;;;;;;;;22.95;49.02;101596.16;5051465;28;19943;-72
2023/07/17 05:51:10;;;;;;;;;;;;;;;22.96;49.49;101595.13;5066108;28;20378;-73
2023/07/17 05:53:36;;;;;;;;;;;;;;;22.97;49.22;101590.53;5050234;28;19913;-72
2023/07/17 05:56:01;;;;;;;;;;;;;;;22.97;49.46;101598.69;5048697;28;20294;-73
2023/07/17 05:58:26;;;;;;;;;;;;;;;22.97;49.58;101601.41;5045301;28;19925;-73
2023/07/17 06:00:51;;;;;;;;;;;;;;;22.97;49.25;101606.81;5044511;28;19956;-72
2023/07/17 06:03:17;;;;;;;;;;;;;;;22.97;49.49;101598.69;5047371;28;19922;-72
2023/07/17 06:05:43;;;;;;;;;;;;;;;22.97;49.39;101606.81;5047500;28;19981;-72
2023/07/17 06:08:08;;;;;;;;;;;;;;;22.97;49.47;101604.09;5046684;28;20393;-75
2023/07/17 06:10:34;;;;;;;;;;;;;;;22.97;49.35;101601.41;5046156;28;19972;-76
2023/07/17 06:12:59;;;;;;;;;;;;;;;22.95;49.47;101602.44;5049747;28;19921;-77
2023/07/17 06:15:24;;;;;;;;;;;;;;;22.97;49.56;101606.81;5064285;28;19917;-77
2023/07/17 06:17:50;;;;;;;;;;;;;;;22.97;49.28;101604.94;5050598;28;19932;-76
2023/07/17 06:20:15;;;;;;;;;;;;;;;22.96;49.44;101614.13;5063897;28;19944;-74
2023/07/17 06:22:40;;;;;;;;;;;;;;;22.95;49.36;101612.44;5045202;28;20513;-75
2023/07/17 06:25:06;;;;;;;;;;;;;;;22.95;49.25;101615.16;5046597;28;19920;-72
2023/07/17 06:27:32;;;;;;;;;;;;;;;22.93;49.36;101615.31;5047258;28;20008;-71
2023/07/17 06:29:57;;;;;;;;;;;;;;;22.94;49.31;101613.47;5050004;28;19924;-71
2023/07/17 06:32:22;;;;;;;;;;;;;;;22.93;49.05;101617.19;5074978;28;19924;-70
2023/07/17 06:34:47;;;;;;;;;;;;;;;22.94;49.14;101616.19;5083963;28;19916;-71
2023/07/17 06:37:13;;;;;;;;;;;;;;;22.94;49.06;101630.56;5049041;28;20022;-71
2023/07/17 06:39:38;;;;;;;;;;;;;;;22.94;48.95;101627.03;5047882;28;19921;-70
2023/07/17 06:42:03;;;;;;;;;;;;;;;22.93;49.16;101631.56;5049504;28;19970;-70
2023/07/17 06:44:28;;;;;;;;;;;;;;;22.94;49.01;101627.88;5049960;28;19917;-70
2023/07/17 06:46:53;;;;;;;;;;;;;;;22.95;49.10;101632.25;5047654;28;19925;-70
2023/07/17 06:49:19;;;;;;;;;;;;;;;22.95;48.84;101623.28;5048931;28;19923;-70
2023/07/17 06:51:44;;;;;;;;;;;;;;;22.95;49.08;101624.13;5047935;28;19921;-70
2023/07/17 06:54:09;;;;;;;;;;;;;;;22.95;48.92;101618.69;5076909;28;19952;-70
2023/07/17 06:56:34;;;;;;;;;;;;;;;22.95;48.90;101631.41;5051043;28;19925;-70
2023/07/17 06:59:00;;;;;;;;;;;;;;;22.95;48.60;101634.97;5044048;28;19917;-70
2023/07/17 07:01:25;;;;;;;;;;;;;;;22.95;48.75;101631.41;5047590;28;19952;-70
2023/07/17 07:03:50;;;;;;;;;;;;;;;22.95;48.75;101647.69;5080298;28;19924;-70
2023/07/17 07:06:16;;;;;;;;;;;;;;;22.53;48.09;101591.09;5046823;28;19933;-71
2023/07/17 07:08:42;;;;;;;;;;;;;;;22.78;48.17;101654.19;5047615;28;19950;-71
2023/07/17 07:11:07;;;;;;;;;;;;;;;22.67;48.50;101652.69;5051795;28;19959;-71
2023/07/17 07:13:32;;;;;;;;;;;;;;;22.56;48.63;101648.50;5083952;28;19921;-71
2023/07/17 07:15:58;;;;;;;;;;;;;;;22.48;49.01;101664.78;5051596;28;20409;-71
2023/07/17 07:18:23;;;;;;;;;;;;;;;22.38;48.96;101654.13;5050406;28;19935;-71
2023/07/17 07:20:51;;;;;;;;;;;;;;;22.29;49.07;101655.16;5048376;28;19924;-72
2023/07/17 07:23:16;;;;;;;;;;;;;;;22.20;48.96;101662.47;5050379;28;19921;-71
2023/07/17 07:25:42;;;;;;;;;;;;;;;22.14;49.41;101670.47;5050380;28;20353;-71
2023/07/17 07:28:07;;;;;;;;;;;;;;;22.11;49.39;101665.34;5064715;28;19925;-71
2023/07/17 07:30:32;;;;;;;;;;;;;;;22.07;49.58;101672.97;5081021;28;20044;-71
2023/07/17 07:32:57;;;;;;;;;;;;;;;22.06;49.42;101673.97;5062855;28;19921;-72
2023/07/17 07:35:23;;;;;;;;;;;;;;;22.05;50.18;101672.31;5080940;28;19928;-71
2023/07/17 07:37:48;;;;;;;;;;;;;;;22.06;50.05;101675.84;5053434;28;19984;-71
2023/07/17 07:40:13;;;;;;;;;;;;;;;22.05;49.56;101682.28;5048701;28;19921;-70
2023/07/17 07:42:39;;;;;;;;;;;;;;;22.05;49.50;101679.59;5047820;28;19921;-70
2023/07/17 07:45:05;;;;;;;;;;;;;;;22.02;49.87;101680.75;5053107;28;19988;-70
2023/07/17 07:47:30;;;;;;;;;;;;;;;21.99;49.42;101689.22;5044315;28;19929;-71
2023/07/17 07:49:55;;;;;;;;;;;;;;;21.96;49.93;101692.25;5050609;28;19917;-70
2023/07/17 07:52:21;;;;;;;;;;;;;;;21.93;49.81;101688.03;5043569;28;19917;-70
2023/07/17 07:54:46;;;;;;;;;;;;;;;21.92;49.44;101686.34;5045698;28;19924;-70
2023/07/17 07:57:11;;;;;;;;;;;;;;;21.93;49.78;101684.50;5032245;28;19917;-70
2023/07/17 07:59:36;;;;;;;;;;;;;;;21.95;49.91;101693.28;5062199;28;19920;-69
2023/07/17 08:02:02;;;;;;;;;;;;;;;21.98;49.72;101697.53;5052165;28;19979;-70
2023/07/17 08:04:27;;;;;;;;;;;;;;;21.99;49.56;101693.78;5050239;28;19965;-70
2023/07/17 08:06:53;;;;;;;;;;;;;;;22.01;49.41;101702.59;5077939;28;19928;-70
2023/07/17 08:09:18;;;;;;;;;;;;;;;22.06;49.91;101714.59;5048622;28;20600;-71
2023/07/17 08:11:43;;;;;;;;;;;;;;;22.09;49.50;101697.16;5065680;28;19917;-70
2023/07/17 08:14:08;;;;;;;;;;;;;;;22.10;49.34;101702.41;5048796;28;19928;-71
2023/07/17 08:16:34;;;;;;;;;;;;;;;22.13;49.27;101703.94;5047638;28;19917;-71
2023/07/17 08:18:59;;;;;;;;;;;;;;;22.15;49.36;101702.78;5050825;28;20432;-71
2023/07/17 08:21:24;;;;;;;;;;;;;;;22.16;48.89;101712.59;5046200;28;19917;-70
2023/07/17 08:23:49;;;;;;;;;;;;;;;22.16;48.92;101712.59;5049635;28;19920;-70
2023/07/17 08:26:14;;;;;;;;;;;;;;;22.18;48.75;101710.56;5046789;28;19924;-70
2023/07/17 08:28:40;;;;;;;;;;;;;;;22.19;48.75;101723.09;5046655;28;19946;-71
2023/07/17 08:31:05;;;;;;;;;;;;;;;22.18;48.61;101717.84;5081040;28;19952;-69
2023/07/17 08:33:30;;;;;;;;;;;;;;;22.18;48.74;101715.16;5075851;28;20015;-71
2023/07/17 08:35:55;;;;;;;;;;;;;;;22.17;48.49;101708.00;5046295;28;19921;-71
2023/07/17 08:38:20;;;;;;;;;;;;;;;22.17;48.16;101703.47;5051558;28;19920;-71
2023/07/17 08:40:50;;;;;;;;;;;;;;;22.18;48.19;101712.44;5049015;28;19921;-71
2023/07/17 08:43:15;;;;;;;;;;;;;;;22.19;48.41;101712.25;5042010;28;19952;-71
2023/07/17 08:45:41;;;;;;;;;;;;;;;22.21;48.97;101717.50;5047256;28;20366;-71
2023/07/17 08:48:06;;;;;;;;;;;;;;;22.23;48.60;101707.34;5042973;28;20481;-71
2023/07/17 08:50:32;;;;;;;;;;;;;;;22.24;48.42;101716.31;5079309;28;19921;-73
2023/07/17 08:52:57;;;;;;;;;;;;;;;22.26;48.56;101715.13;5070631;28;19928;-71
2023/07/17 08:55:22;;;;;;;;;;;;;;;22.27;48.06;101706.00;5047853;28;19924;-71
2023/07/17 08:57:48;;;;;;;;;;;;;;;22.31;48.26;101707.34;5030690;28;19925;-71
2023/07/17 09:00:15;;;;;;;;;;;;;;;22.34;48.70;101709.69;5047109;28;19920;-72
2023/07/17 09:02:41;;;;;;;;;;;;;;;22.38;48.73;101705.59;5076328;28;19920;-70
2023/07/17 09:05:07;;;;;;;;;;;;;;;22.43;48.63;101705.13;5046402;28;19967;-71
2023/07/17 09:07:32;;;;;;;;;;;;;;;22.45;48.60;101708.50;5048067;28;20019;-72
2023/07/17 09:10:13;;;;;;;;;;;;;;;22.44;47.75;101710.34;5045846;28;19924;-69
2023/07/17 09:12:40;;;;;;;;;;;;;;;22.43;48.26;101710.53;5046939;28;19913;-70
2023/07/17 09:15:06;;;;;;;;;;;;;;;22.40;49.71;101708.16;5046052;28;19917;-70
2023/07/17 09:17:32;;;;;;;;;;;;;;;22.34;49.94;101708.84;5048039;28;19917;-71
2023/07/17 09:20:10;;;;;;;;;;;;;;;22.31;50.16;101715.47;5047708;28;19921;-70
2023/07/17 09:22:35;;;;;;;;;;;;;;;22.28;49.44;101715.78;5045652;28;20396;-70
2023/07/17 09:25:00;;;;;;;;;;;;;;;22.29;49.20;101711.22;5048577;28;19980;-70
2023/07/17 09:27:25;;;;;;;;;;;;;;;22.28;49.11;101698.69;5046639;28;20039;-69
2023/07/17 09:29:51;;;;;;;;;;;;;;;22.28;49.26;101710.38;5046380;28;19917;-70
2023/07/17 09:32:18;;;;;;;;;;;;;;;22.27;48.36;101716.81;5050913;28;19963;-70
2023/07/17 09:34:44;;;;;;;;;;;;;;;22.25;48.68;101716.13;5077267;28;19963;-71
2023/07/17 09:37:09;;;;;;;;;;;;;;;22.22;48.19;101719.22;5032878;28;19921;-71
2023/07/17 09:39:38;;;;;;;;;;;;;;;22.19;48.30;101733.09;5049530;28;19912;-71
2023/07/17 09:42:03;;;;;;;;;;;;;;;22.16;49.00;101728.00;5045656;28;19924;-72
2023/07/17 09:44:28;;;;;;;;;;;;;;;22.11;48.85;101739.31;5048988;28;20458;-71
2023/07/17 09:46:54;;;;;;;;;;;;;;;22.04;49.22;101749.13;5031572;28;19921;-71
2023/07/17 09:49:19;;;;;;;;;;;;;;;21.98;50.17;101740.84;5045666;28;19920;-71
2023/07/17 09:51:44;;;;;;;;;;;;;;;21.90;50.87;101737.09;5048221;28;19913;-71
2023/07/17 09:54:09;;;;;;;;;;;;;;;21.84;51.58;101739.66;5045684;28;19921;-71
2023/07/17 09:56:35;;;;;;;;;;;;;;;21.77;51.35;101742.19;5078304;28;19921;-71
2023/07/17 09:59:13;;;;;;;;;;;;;;;21.71;51.46;101746.41;5076015;28;19927;-72
2023/07/17 10:01:39;;;;;;;;;;;;;;;21.66;52.19;101753.31;5079138;28;19972;-73
2023/07/17 10:04:05;;;;;;;;;;;;;;;21.61;52.69;101761.94;5050158;28;20427;-75
2023/07/17 10:06:30;;;;;;;;;;;;;;;21.57;53.21;101779.50;5048050;28;20390;-75
2023/07/17 10:08:55;;;;;;;;;;;;;;;21.53;55.87;101756.50;5077149;28;19913;-74
2023/07/17 10:11:21;;;;;;;;;;;;;;;21.49;56.95;101754.28;5045496;28;19921;-72
2023/07/17 10:13:46;;;;;;;;;;;;;;;21.45;58.22;101751.94;5049388;28;19917;-75
2023/07/17 10:16:13;;;;;;;;;;;;;;;21.46;60.55;101752.78;5076465;28;19929;-72
2023/07/17 10:18:48;;;;;;;;;;;;;;;21.47;59.10;101749.06;5044784;28;19921;-74
2023/07/17 10:21:14;;;;;;;;;;;;;;;21.52;59.95;101745.84;5042662;28;19925;-75
2023/07/17 10:23:41;;;;;;;;;;;;;;;21.58;59.54;101742.47;5062866;28;19925;-74
2023/07/17 10:26:08;;;;;;;;;;;;;;;21.66;59.72;101751.47;5084326;28;19928;-73
2023/07/17 10:28:34;;;;;;;;;;;;;;;21.74;59.21;101749.78;5050036;28;19987;-71
2023/07/17 10:31:18;;;;;;;;;;;;;;;21.80;59.66;101746.41;5077966;28;19924;-73
2023/07/17 10:33:50;;;;;;;;;;;;;;;21.83;56.94;101749.59;5050507;28;19924;-72
2023/07/17 10:36:16;;;;;;;;;;;;;;;21.85;56.55;101769.25;5047945;28;19921;-71
2023/07/17 10:38:42;;;;;;;;;;;;;;;21.85;56.19;101768.41;5050752;28;19960;-72
2023/07/17 10:41:13;;;;;;;;;;;;;;;21.83;54.74;101776.69;5051436;28;19921;-71
2023/07/17 10:43:57;;;;;;;;;;;;;;;21.78;53.88;101781.75;5049866;28;19917;-71
2023/07/17 10:46:27;;;;;;;;;;;;;;;21.73;53.49;101786.81;5052472;28;19917;-71
2023/07/17 10:48:52;;;;;;;;;;;;;;;21.66;53.34;101789.38;5048121;28;19917;-74
2023/07/17 10:51:17;;;;;;;;;;;;;;;21.61;52.93;101780.88;5051932;28;19940;-75
2023/07/17 10:53:43;;;;;;;;;;;;;;;21.57;53.67;101795.75;5038651;28;19921;-74
2023/07/17 10:56:08;;;;;;;;;;;;;;;21.53;53.31;101799.78;5054627;28;19913;-74
2023/07/17 10:58:33;;;;;;;;;;;;;;;21.49;53.37;101800.28;5050925;28;19984;-70
2023/07/17 11:01:03;;;;;;;;;;;;;;;20.99;54.03;101733.50;5051592;28;19941;-71
2023/07/17 11:03:28;;;;;;;;;;;;;;;21.38;54.30;101807.69;5050928;28;19979;-72
2023/07/17 11:05:55;;;;;;;;;;;;;;;21.33;55.39;101798.41;5052382;28;20342;-72
2023/07/17 11:08:20;;;;;;;;;;;;;;;21.30;56.15;101802.22;5085596;28;19971;-75
2023/07/17 11:10:46;;;;;;;;;;;;;;;21.27;56.67;101797.13;5048074;28;19925;-73
2023/07/17 11:13:11;;;;;;;;;;;;;;;21.26;56.62;101806.25;5077809;28;19920;-73
2023/07/17 11:15:37;;;;;;;;;;;;;;;21.27;57.21;101812.50;5034518;28;19928;-72
2023/07/17 11:18:03;;;;;;;;;;;;;;;21.36;56.49;101812.41;5049352;28;19925;-73
2023/07/17 11:20:28;;;;;;;;;;;;;;;21.46;56.21;101818.56;5052711;28;20267;-73
2023/07/17 11:22:54;;;;;;;;;;;;;;;21.59;55.56;101811.84;5030737;28;19925;-73
2023/07/17 11:25:20;;;;;;;;;;;;;;;21.70;55.16;101809.66;5052184;28;19921;-73
2023/07/17 11:27:45;;;;;;;;;;;;;;;21.79;54.85;101802.44;5051037;28;19932;-73
2023/07/17 11:30:18;;;;;;;;;;;;;;;21.89;54.54;101804.97;5052190;28;19916;-73
2023/07/17 11:32:43;;;;;;;;;;;;;;;21.96;54.53;101814.97;5046206;28;19917;-73
2023/07/17 11:35:08;;;;;;;;;;;;;;;22.05;54.19;101807.72;5044607;28;19924;-73
2023/07/17 11:37:34;;;;;;;;;;;;;;;22.11;54.12;101804.31;5046929;28;19921;-73
2023/07/17 11:40:05;;;;;;;;;;;;;;;22.18;53.84;101807.25;5082031;28;19925;-73
2023/07/17 11:42:30;;;;;;;;;;;;;;;22.23;53.71;101804.88;5047694;28;20004;-73
2023/07/17 11:45:01;;;;;;;;;;;;;;;22.28;53.71;101810.63;5046398;28;19917;-73
2023/07/17 11:47:26;;;;;;;;;;;;;;;22.34;53.52;101804.50;5051848;28;19921;-74
2023/07/17 11:49:52;;;;;;;;;;;;;;;22.41;53.10;101807.41;5078319;28;20007;-73
2023/07/17 11:52:18;;;;;;;;;;;;;;;22.45;52.89;101811.47;5049989;28;19971;-74
2023/07/17 11:54:43;;;;;;;;;;;;;;;22.50;52.68;101808.25;5052015;28;20394;-73
2023/07/17 11:57:09;;;;;;;;;;;;;;;22.54;52.55;101805.00;5050031;28;20000;-73
2023/07/17 11:59:34;;;;;;;;;;;;;;;22.57;52.50;101811.97;5079734;28;19921;-73
2023/07/17 12:01:59;;;;;;;;;;;;;;;22.59;52.57;101818.88;5034049;28;20382;-73
2023/07/17 12:04:26;;;;;;;;;;;;;;;22.60;52.21;101817.91;5047228;28;20365;-74
2023/07/17 12:06:53;;;;;;;;;;;;;;;22.62;52.19;101809.59;5047273;28;19925;-73
2023/07/17 12:09:18;;;;;;;;;;;;;;;22.64;52.39;101857.19;5047807;28;19921;-74
2023/07/17 12:11:44;;;;;;;;;;;;;;;22.64;52.52;101851.78;5030333;28;19917;-73
2023/07/17 12:14:09;;;;;;;;;;;;;;;22.65;52.27;101849.91;5081713;28;19917;-74
2023/07/17 12:16:34;;;;;;;;;;;;;;;22.65;52.21;101839.91;5083352;28;19921;-74
2023/07/17 12:18:59;;;;;;;;;;;;;;;22.65;52.43;101839.91;5080503;28;19959;-74
2023/07/17 12:21:25;;;;;;;;;;;;;;;22.65;52.48;101839.91;5053553;28;19921;-74
2023/07/17 12:23:50;;;;;;;;;;;;;;;22.67;52.22;101839.72;5050619;28;19939;-75
2023/07/17 12:26:15;;;;;;;;;;;;;;;22.67;52.25;101832.44;5050119;28;20009;-75
2023/07/17 12:28:41;;;;;;;;;;;;;;;22.68;52.09;101831.44;5052187;28;20099;-74